createdAt,value
2022-10-18T00:02:16.429Z,9.15
2022-10-18T00:04:43.057Z,8.55
2022-10-18T00:07:09.698Z,7.85
2022-10-18T00:09:36.394Z,7.65
2022-10-18T00:12:03.364Z,8.43
2022-10-18T00:14:30.125Z,8.75
2022-10-18T00:16:57.366Z,8.48
2022-10-18T00:19:26.024Z,8.77
2022-10-18T00:21:55.223Z,7.97
2022-10-18T00:24:21.867Z,9.00
2022-10-18T00:26:48.594Z,7.78
2022-10-18T00:29:16.145Z,8.18
2022-10-18T00:31:43.758Z,7.90
2022-10-18T00:34:13.034Z,7.85
2022-10-18T00:36:40.001Z,7.82
2022-10-18T00:39:07.567Z,7.90
2022-10-18T00:41:35.555Z,7.82
2022-10-18T00:44:13.209Z,7.78
2022-10-18T00:46:42.180Z,8.50
2022-10-18T00:49:22.200Z,7.97
2022-10-18T00:51:48.879Z,8.18
2022-10-18T00:54:16.858Z,8.32
2022-10-18T00:56:44.868Z,8.32
2022-10-18T00:59:14.097Z,8.40
2022-10-18T01:01:40.821Z,8.50
2022-10-18T01:04:07.665Z,7.43
2022-10-18T01:07:05.906Z,7.93
2022-10-18T01:10:01.644Z,7.50
2022-10-18T01:12:43.387Z,7.50
2022-10-18T01:15:29.747Z,7.72
2022-10-18T01:17:56.367Z,8.73
2022-10-18T01:20:58.585Z,7.95
2022-10-18T01:23:40.285Z,7.57
2022-10-18T01:26:28.621Z,7.82
2022-10-18T01:28:55.186Z,7.85
2022-10-18T01:31:24.083Z,8.95
2022-10-18T01:33:54.055Z,8.63
2022-10-18T01:36:34.971Z,8.88
2022-10-18T01:39:06.231Z,8.63
2022-10-18T01:41:34.589Z,7.93
2022-10-18T01:44:03.244Z,8.93
2022-10-18T01:46:30.269Z,8.65
2022-10-18T01:48:57.685Z,8.40
2022-10-18T01:51:26.102Z,8.95
2022-10-18T01:53:52.977Z,9.15
2022-10-18T01:56:40.721Z,9.40
2022-10-18T01:59:39.410Z,8.63
2022-10-18T02:02:24.905Z,8.45
2022-10-18T02:05:01.805Z,8.52
2022-10-18T02:07:55.360Z,8.55
2022-10-18T02:10:38.455Z,9.43
2022-10-18T02:13:05.300Z,8.75
2022-10-18T02:15:37.680Z,8.57
2022-10-18T02:18:08.627Z,7.47
2022-10-18T02:20:36.620Z,9.45
2022-10-18T02:23:04.695Z,9.18
2022-10-18T02:25:31.805Z,8.35
2022-10-18T02:27:58.559Z,8.88
2022-10-18T02:30:31.317Z,9.25
2022-10-18T02:33:18.897Z,8.93
2022-10-18T02:35:47.612Z,8.52
2022-10-18T02:38:15.510Z,8.77
2022-10-18T02:40:42.196Z,8.45
2022-10-18T02:43:08.812Z,9.90
2022-10-18T02:45:35.475Z,9.00
2022-10-18T02:48:02.152Z,8.23
2022-10-18T02:50:28.786Z,9.02
2022-10-18T02:52:55.483Z,8.50
2022-10-18T02:55:22.160Z,8.27
2022-10-18T02:57:48.957Z,8.45
2022-10-18T03:00:15.810Z,9.20
2022-10-18T03:02:42.450Z,9.40
2022-10-18T03:05:09.136Z,9.70
2022-10-18T03:07:35.775Z,8.85
2022-10-18T03:10:02.548Z,8.45
2022-10-18T03:12:29.257Z,8.07
2022-10-18T03:14:55.972Z,8.00
2022-10-18T03:17:22.827Z,8.05
2022-10-18T03:19:49.494Z,8.27
2022-10-18T03:22:16.183Z,7.93
2022-10-18T03:24:42.981Z,8.30
2022-10-18T03:27:09.702Z,8.93
2022-10-18T03:29:36.355Z,8.13
2022-10-18T03:32:03.037Z,8.25
2022-10-18T03:34:29.696Z,8.68
2022-10-18T03:37:00.878Z,8.60
2022-10-18T03:39:30.132Z,8.20
2022-10-18T03:41:56.775Z,7.88
2022-10-18T03:44:23.433Z,8.73
2022-10-18T03:46:50.238Z,8.70
2022-10-18T03:49:16.968Z,7.93
2022-10-18T03:51:43.599Z,8.80
2022-10-18T03:54:10.197Z,8.30
2022-10-18T03:56:36.849Z,9.00
2022-10-18T03:59:04.481Z,8.48
2022-10-18T04:01:31.327Z,8.35
2022-10-18T04:03:58.075Z,7.65
2022-10-18T04:06:24.736Z,8.13
2022-10-18T04:08:51.373Z,8.10
2022-10-18T04:11:18.021Z,7.57
2022-10-18T04:13:44.734Z,8.88
2022-10-18T04:16:11.449Z,10.15
2022-10-18T04:18:38.201Z,8.98
2022-10-18T04:21:04.917Z,10.05
2022-10-18T04:23:33.862Z,8.52
2022-10-18T04:26:03.068Z,9.40
2022-10-18T04:28:29.762Z,8.63
2022-10-18T04:30:58.508Z,8.95
2022-10-18T04:33:25.704Z,8.70
2022-10-18T04:35:53.953Z,9.43
2022-10-18T04:38:20.788Z,10.05
2022-10-18T04:40:47.441Z,8.55
2022-10-18T04:43:14.162Z,9.30
2022-10-18T04:45:40.840Z,8.57
2022-10-18T04:48:07.612Z,9.65
2022-10-18T04:50:34.255Z,9.18
2022-10-18T04:53:00.872Z,9.13
2022-10-18T04:55:27.557Z,8.80
2022-10-18T04:57:54.208Z,9.10
2022-10-18T05:00:20.876Z,8.60
2022-10-18T05:02:47.517Z,9.32
2022-10-18T05:05:14.422Z,8.52
2022-10-18T05:07:41.471Z,9.20
2022-10-18T05:10:08.546Z,8.73
2022-10-18T05:12:35.315Z,8.60
2022-10-18T05:15:02.043Z,8.90
2022-10-18T05:17:28.792Z,8.90
2022-10-18T05:19:55.430Z,8.65
2022-10-18T05:22:22.166Z,7.97
2022-10-18T05:24:48.793Z,8.88
2022-10-18T05:27:15.474Z,8.15
2022-10-18T05:29:42.173Z,7.70
2022-10-18T05:32:08.856Z,8.43
2022-10-18T05:34:35.525Z,9.18
2022-10-18T05:37:02.162Z,8.68
2022-10-18T05:39:28.921Z,7.90
2022-10-18T05:41:55.761Z,9.23
2022-10-18T05:44:22.393Z,7.97
2022-10-18T05:46:49.030Z,8.02
2022-10-18T05:49:15.867Z,7.88
2022-10-18T05:51:42.552Z,8.05
2022-10-18T05:54:11.865Z,8.40
2022-10-18T05:59:12.187Z,8.50
2022-10-18T06:01:40.141Z,10.13
2022-10-18T06:04:06.820Z,9.35
2022-10-18T06:06:33.593Z,8.63
2022-10-18T06:09:00.294Z,8.95
2022-10-18T06:11:26.961Z,8.38
2022-10-18T06:13:53.616Z,9.43
2022-10-18T06:16:22.133Z,8.38
2022-10-18T06:18:53.092Z,8.93
2022-10-18T06:21:20.396Z,9.15
2022-10-18T06:23:50.873Z,8.65
2022-10-18T06:26:17.722Z,9.40
2022-10-18T06:28:44.471Z,8.05
2022-10-18T06:31:12.220Z,9.18
2022-10-18T06:33:38.869Z,9.15
2022-10-18T06:36:11.838Z,9.50
2022-10-18T06:41:06.149Z,9.40
2022-10-18T06:43:32.956Z,9.70
2022-10-18T06:46:00.990Z,9.65
2022-10-18T06:48:27.619Z,9.93
2022-10-18T06:51:03.624Z,9.50
2022-10-18T06:53:32.453Z,9.98
2022-10-18T06:56:04.122Z,10.57
2022-10-18T06:58:30.948Z,9.68
2022-10-18T07:00:58.897Z,10.50
2022-10-18T07:03:26.266Z,10.05
2022-10-18T07:05:52.955Z,10.38
2022-10-18T07:08:19.680Z,9.80
2022-10-18T07:10:53.158Z,9.43
2022-10-18T07:13:31.911Z,10.75
2022-10-18T07:16:14.103Z,9.85
2022-10-18T07:18:49.596Z,11.10
2022-10-18T07:21:21.071Z,9.40
2022-10-18T07:23:48.333Z,10.30
2022-10-18T07:26:24.028Z,9.60
2022-10-18T07:28:55.175Z,9.82
2022-10-18T07:31:22.652Z,9.63
2022-10-18T07:33:49.308Z,10.05
2022-10-18T07:36:16.131Z,10.43
2022-10-18T07:38:42.895Z,12.63
2022-10-18T07:41:11.496Z,10.93
2022-10-18T07:43:41.564Z,12.30
2022-10-18T07:46:08.250Z,11.10
2022-10-18T07:48:34.978Z,11.65
2022-10-18T07:51:02.147Z,10.88
2022-10-18T07:53:29.298Z,11.48
2022-10-18T07:56:01.398Z,11.55
2022-10-18T07:58:31.646Z,10.98
2022-10-18T08:01:02.254Z,11.40
2022-10-18T08:03:28.959Z,10.65
2022-10-18T08:05:55.927Z,11.48
2022-10-18T08:08:23.397Z,12.38
2022-10-18T08:10:50.158Z,11.25
2022-10-18T08:13:17.137Z,11.65
2022-10-18T08:15:43.950Z,12.63
2022-10-18T08:18:11.525Z,10.85
2022-10-18T08:20:45.434Z,11.20
2022-10-18T08:23:12.222Z,10.88
2022-10-18T08:25:38.876Z,10.98
2022-10-18T08:28:06.038Z,10.63
2022-10-18T08:30:32.675Z,11.32
2022-10-18T08:32:59.312Z,11.50
2022-10-18T08:35:26.010Z,10.95
2022-10-18T08:37:52.691Z,11.05
2022-10-18T08:40:20.518Z,12.73
2022-10-18T08:42:57.898Z,10.90
2022-10-18T08:45:40.916Z,11.57
2022-10-18T08:48:18.852Z,13.10
2022-10-18T08:50:46.178Z,11.63
2022-10-18T08:53:56.814Z,12.85
2022-10-18T08:56:24.774Z,13.27
2022-10-18T08:58:51.677Z,13.25
2022-10-18T09:01:37.081Z,13.93
2022-10-18T09:04:03.675Z,14.77
2022-10-18T09:06:56.266Z,14.20
2022-10-18T09:09:41.132Z,13.77
2022-10-18T09:12:35.319Z,13.60
2022-10-18T09:15:35.429Z,13.75
2022-10-18T09:18:32.731Z,12.98
2022-10-18T09:21:01.182Z,13.20
2022-10-18T09:23:33.538Z,14.55
2022-10-18T09:26:18.835Z,14.25
2022-10-18T09:29:00.970Z,12.88
2022-10-18T09:31:50.215Z,14.30
2022-10-18T09:34:31.645Z,14.80
2022-10-18T09:36:59.149Z,13.45
2022-10-18T09:39:31.399Z,13.20
2022-10-18T09:42:03.809Z,14.48
2022-10-18T09:44:38.249Z,15.60
2022-10-18T09:47:21.885Z,16.70
2022-10-18T09:49:52.200Z,14.55
2022-10-18T09:52:23.546Z,14.93
2022-10-18T09:54:55.364Z,13.60
2022-10-18T09:57:35.624Z,16.08
2022-10-18T10:00:05.071Z,13.38
2022-10-18T10:02:31.921Z,17.85
2022-10-18T10:04:58.609Z,13.40
2022-10-18T10:07:35.060Z,15.82
2022-10-18T10:10:21.339Z,16.23
2022-10-18T10:12:49.089Z,15.10
2022-10-18T10:15:29.556Z,14.02
2022-10-18T10:18:18.007Z,15.25
2022-10-18T10:20:51.472Z,12.57
2022-10-18T10:23:37.435Z,13.60
2022-10-18T10:26:06.980Z,12.68
2022-10-18T10:28:37.227Z,9.30
2022-10-18T10:31:27.167Z,11.35
2022-10-18T10:34:13.921Z,9.43
2022-10-18T10:36:51.649Z,9.73
2022-10-18T10:39:19.941Z,8.88
2022-10-18T10:41:54.657Z,10.45
2022-10-18T10:44:23.300Z,8.38
2022-10-18T10:46:51.018Z,9.82
2022-10-18T10:52:26.972Z,7.55
2022-10-18T10:55:05.725Z,8.70
2022-10-18T10:57:32.732Z,7.55
2022-10-18T10:59:59.792Z,9.20
2022-10-18T11:02:31.787Z,9.38
2022-10-18T11:05:19.766Z,10.30
2022-10-18T11:07:46.705Z,10.65
2022-10-18T11:10:19.606Z,10.30
2022-10-18T11:15:36.365Z,10.88
2022-10-18T11:18:25.772Z,9.95
2022-10-18T11:20:58.437Z,10.98
2022-10-18T11:23:30.523Z,9.13
2022-10-18T11:26:12.093Z,10.00
2022-10-18T11:29:15.254Z,9.30
2022-10-18T11:32:00.095Z,12.00
2022-10-18T11:34:26.981Z,9.40
2022-10-18T11:37:23.018Z,9.68
2022-10-18T11:39:58.351Z,9.32
2022-10-18T11:42:48.128Z,11.65
2022-10-18T11:45:32.040Z,10.05
2022-10-18T11:48:05.743Z,10.55
2022-10-18T11:50:48.378Z,10.88
2022-10-18T11:53:29.038Z,13.25
2022-10-18T11:56:13.565Z,11.30
2022-10-18T11:58:55.195Z,10.65
2022-10-18T12:01:49.917Z,10.25
2022-10-18T12:04:21.128Z,11.70
2022-10-18T12:06:51.071Z,10.05
2022-10-18T12:09:20.677Z,10.82
2022-10-18T12:11:55.795Z,11.50
2022-10-18T12:14:30.006Z,9.65
2022-10-18T12:17:27.979Z,11.73
2022-10-18T12:19:48.052Z,10.13
2022-10-18T12:22:23.200Z,10.27
2022-10-18T12:24:50.026Z,9.82
2022-10-18T12:27:17.225Z,10.68
2022-10-18T12:29:51.604Z,10.32
2022-10-18T12:32:22.446Z,9.07
2022-10-18T12:34:54.625Z,9.30
2022-10-18T12:37:36.724Z,9.05
2022-10-18T12:40:13.453Z,9.00
2022-10-18T12:42:45.978Z,9.73
2022-10-18T12:45:34.819Z,9.55
2022-10-18T12:48:08.382Z,9.68
2022-10-18T12:50:37.622Z,10.25
2022-10-18T12:53:10.342Z,8.80
2022-10-18T12:55:39.493Z,8.95
2022-10-18T12:58:30.340Z,8.35
2022-10-18T13:01:02.256Z,9.02
2022-10-18T13:03:38.869Z,9.67
2022-10-18T13:06:06.785Z,9.02
2022-10-18T13:08:43.137Z,8.77
2022-10-18T13:11:10.036Z,9.50
2022-10-18T13:13:54.961Z,7.80
2022-10-18T13:16:45.686Z,9.55
2022-10-18T13:19:28.591Z,7.47
2022-10-18T13:22:32.889Z,7.90
2022-10-18T13:25:25.585Z,9.05
2022-10-18T13:28:16.172Z,7.95
2022-10-18T13:30:58.771Z,8.93
2022-10-18T13:33:30.702Z,8.45
2022-10-18T13:35:59.507Z,9.32
2022-10-18T13:38:34.292Z,9.35
2022-10-18T13:41:16.961Z,9.90
2022-10-18T13:43:52.844Z,9.07
2022-10-18T13:46:20.412Z,7.75
2022-10-18T13:48:51.577Z,7.35
2022-10-18T13:51:38.700Z,7.65
2022-10-18T13:54:31.989Z,7.63
2022-10-18T13:59:53.897Z,6.95
2022-10-18T14:02:51.558Z,6.78
2022-10-18T14:05:33.646Z,6.68
2022-10-18T14:08:08.160Z,6.28
2022-10-18T14:11:01.810Z,7.47
2022-10-18T14:13:39.629Z,5.80
2022-10-18T14:16:28.375Z,5.75
2022-10-18T14:19:01.559Z,5.75
2022-10-18T14:21:34.482Z,6.25
2022-10-18T14:26:29.219Z,6.40
2022-10-18T14:29:06.459Z,6.63
2022-10-18T14:31:33.564Z,5.75
2022-10-18T14:34:01.008Z,5.32
2022-10-18T14:36:34.426Z,5.45
2022-10-18T14:39:04.264Z,6.07
2022-10-18T14:41:32.872Z,5.93
2022-10-18T14:44:14.665Z,5.63
2022-10-18T14:46:52.954Z,4.78
2022-10-18T14:49:20.345Z,5.53
2022-10-18T14:51:52.266Z,5.45
2022-10-18T14:54:31.840Z,5.25
2022-10-18T14:57:00.514Z,5.85
2022-10-18T14:59:28.994Z,4.80
2022-10-18T15:02:01.820Z,6.15
2022-10-18T15:07:04.653Z,5.32
2022-10-18T15:09:34.593Z,5.15
2022-10-18T15:12:04.086Z,4.85
2022-10-18T15:14:30.937Z,5.40
2022-10-18T15:17:04.926Z,5.07
2022-10-18T15:19:34.402Z,5.68
2022-10-18T15:25:05.773Z,5.80
2022-10-18T15:27:36.281Z,4.78
2022-10-18T15:30:34.901Z,5.22
2022-10-18T15:33:03.840Z,4.88
2022-10-18T15:35:33.348Z,5.00
2022-10-18T15:38:03.514Z,5.18
2022-10-18T15:40:35.542Z,5.70
2022-10-18T15:43:06.221Z,6.63
2022-10-18T15:45:34.083Z,5.38
2022-10-18T15:48:02.090Z,5.60
2022-10-18T15:50:43.829Z,5.53
2022-10-18T15:53:22.768Z,6.55
2022-10-18T15:56:23.190Z,5.60
2022-10-18T15:58:51.250Z,6.00
2022-10-18T16:01:21.294Z,5.82
2022-10-18T16:03:48.735Z,6.22
2022-10-18T16:06:18.205Z,6.05
2022-10-18T16:08:47.926Z,6.47
2022-10-18T16:11:17.373Z,6.18
2022-10-18T16:13:44.538Z,6.35
2022-10-18T16:16:23.206Z,6.05
2022-10-18T16:18:50.270Z,6.22
2022-10-18T16:21:18.465Z,5.65
2022-10-18T16:23:45.615Z,5.85
2022-10-18T16:26:13.022Z,5.93
2022-10-18T16:28:40.022Z,5.63
2022-10-18T16:31:07.341Z,7.07
2022-10-18T16:33:35.686Z,6.32
2022-10-18T16:36:04.740Z,6.88
2022-10-18T16:38:36.873Z,6.07
2022-10-18T16:41:05.006Z,5.97
2022-10-18T16:43:32.326Z,6.15
2022-10-18T16:45:59.311Z,6.45
2022-10-18T16:48:26.162Z,6.47
2022-10-18T16:50:54.395Z,6.75
2022-10-18T16:53:25.054Z,6.13
2022-10-18T16:55:59.482Z,6.35
2022-10-18T16:58:27.468Z,7.05
2022-10-18T17:00:54.362Z,7.53
2022-10-18T17:03:21.588Z,6.75
2022-10-18T17:05:48.382Z,7.60
2022-10-18T17:08:19.307Z,6.60
2022-10-18T17:10:47.640Z,7.75
2022-10-18T17:13:14.615Z,8.38
2022-10-18T17:15:42.447Z,6.97
2022-10-18T17:18:15.469Z,7.38
2022-10-18T17:20:42.848Z,8.05
2022-10-18T17:23:09.964Z,7.80
2022-10-18T17:25:46.279Z,7.53
2022-10-18T17:28:24.614Z,7.72
2022-10-18T17:30:52.030Z,7.03
2022-10-18T17:33:18.770Z,7.32
2022-10-18T17:35:45.416Z,7.82
2022-10-18T17:38:12.333Z,7.65
2022-10-18T17:40:42.789Z,8.77
2022-10-18T17:43:10.286Z,8.88
2022-10-18T17:45:37.893Z,8.13
2022-10-18T17:48:04.729Z,8.48
2022-10-18T17:50:31.575Z,9.52
2022-10-18T17:52:58.470Z,9.10
2022-10-18T17:55:25.159Z,8.65
2022-10-18T17:57:51.794Z,9.00
2022-10-18T18:00:18.770Z,9.23
2022-10-18T18:02:46.582Z,8.07
2022-10-18T18:05:13.328Z,8.77
2022-10-18T18:07:40.166Z,8.18
2022-10-18T18:10:07.046Z,7.90
2022-10-18T18:12:33.898Z,8.40
2022-10-18T18:15:00.801Z,7.90
2022-10-18T18:17:34.043Z,7.93
2022-10-18T18:20:06.968Z,7.95
2022-10-18T18:22:35.267Z,8.18
2022-10-18T18:25:04.182Z,7.93
2022-10-18T18:27:31.120Z,7.80
2022-10-18T18:29:57.787Z,8.40
2022-10-18T18:32:24.460Z,8.13
2022-10-18T18:34:51.410Z,9.93
2022-10-18T18:37:18.102Z,9.13
2022-10-18T18:39:45.023Z,9.75
2022-10-18T18:42:11.956Z,11.02
2022-10-18T18:44:38.712Z,10.93
2022-10-18T18:47:10.843Z,11.52
2022-10-18T18:49:39.749Z,11.38
2022-10-18T18:52:06.939Z,11.23
2022-10-18T18:54:33.773Z,11.77
2022-10-18T18:57:05.105Z,11.00
2022-10-18T18:59:31.822Z,10.98
2022-10-18T19:01:58.631Z,10.98
2022-10-18T19:04:25.361Z,11.57
2022-10-18T19:06:52.130Z,11.68
2022-10-18T19:09:22.144Z,12.10
2022-10-18T19:11:50.753Z,11.65
2022-10-18T19:14:17.489Z,12.18
2022-10-18T19:16:53.266Z,12.15
2022-10-18T19:19:25.317Z,13.15
2022-10-18T19:21:54.458Z,12.50
2022-10-18T19:24:22.177Z,11.70
2022-10-18T19:26:54.154Z,11.82
2022-10-18T19:29:23.582Z,11.30
2022-10-18T19:31:51.765Z,12.48
2022-10-18T19:34:19.467Z,11.10
2022-10-18T19:36:47.494Z,13.45
2022-10-18T19:39:19.681Z,10.40
2022-10-18T19:41:50.836Z,11.90
2022-10-18T19:44:19.015Z,11.02
2022-10-18T19:46:46.246Z,10.68
2022-10-18T19:49:12.969Z,11.48
2022-10-18T19:51:39.692Z,10.75
2022-10-18T19:54:06.440Z,11.60
2022-10-18T19:56:33.206Z,11.93
2022-10-18T19:59:00.481Z,11.07
2022-10-18T20:01:28.503Z,12.40
2022-10-18T20:03:55.285Z,10.95
2022-10-18T20:06:22.410Z,12.35
2022-10-18T20:08:49.548Z,11.73
2022-10-18T20:11:22.438Z,12.38
2022-10-18T20:16:17.580Z,11.15
2022-10-18T20:18:44.581Z,11.77
2022-10-18T20:21:13.546Z,13.07
2022-10-18T20:23:41.454Z,13.05
2022-10-18T20:26:11.149Z,13.23
2022-10-18T20:28:38.704Z,12.88
2022-10-18T20:31:07.970Z,14.55
2022-10-18T20:33:35.846Z,12.18
2022-10-18T20:36:10.713Z,12.40
2022-10-18T20:38:39.022Z,13.20
2022-10-18T20:41:21.050Z,12.00
2022-10-18T20:43:52.587Z,13.02
2022-10-18T20:46:19.690Z,13.20
2022-10-18T20:48:46.558Z,12.13
2022-10-18T20:51:13.486Z,12.13
2022-10-18T20:53:40.815Z,12.55
2022-10-18T20:56:15.418Z,11.23
2022-10-18T20:58:43.822Z,11.35
2022-10-18T21:01:17.310Z,12.45
2022-10-18T21:03:45.275Z,11.75
2022-10-18T21:06:19.800Z,10.95
2022-10-18T21:08:47.106Z,11.32
2022-10-18T21:11:14.939Z,11.18
2022-10-18T21:13:41.578Z,12.07
2022-10-18T21:16:08.647Z,11.10
2022-10-18T21:18:36.371Z,10.23
2022-10-18T21:21:18.326Z,11.10
2022-10-18T21:23:45.402Z,11.82
2022-10-18T21:26:15.255Z,12.05
2022-10-18T21:28:42.144Z,12.32
2022-10-18T21:31:10.697Z,12.40
2022-10-18T21:33:37.392Z,12.32
2022-10-18T21:36:04.253Z,12.05
2022-10-18T21:38:30.991Z,11.55
2022-10-18T21:40:57.729Z,11.23
2022-10-18T21:43:24.355Z,9.02
2022-10-18T21:45:57.911Z,10.13
2022-10-18T21:48:24.581Z,9.93
2022-10-18T21:50:51.231Z,9.70
2022-10-18T21:53:18.073Z,10.52
2022-10-18T21:55:44.832Z,10.73
2022-10-18T21:58:11.544Z,9.88
2022-10-18T22:00:39.086Z,11.00
2022-10-18T22:03:14.925Z,11.57
2022-10-18T22:05:41.678Z,12.20
2022-10-18T22:08:08.379Z,10.68
2022-10-18T22:10:35.007Z,11.90
2022-10-18T22:13:01.714Z,12.45
2022-10-18T22:15:28.488Z,12.68
2022-10-18T22:17:55.164Z,12.85
2022-10-18T22:20:22.059Z,13.30
2022-10-18T22:22:48.755Z,12.73
2022-10-18T22:25:15.577Z,13.15
2022-10-18T22:27:42.237Z,12.25
2022-10-18T22:30:09.609Z,12.75
2022-10-18T22:32:36.371Z,12.98
2022-10-18T22:35:03.070Z,12.27
2022-10-18T22:37:29.867Z,13.00
2022-10-18T22:39:56.600Z,14.60
2022-10-18T22:42:23.361Z,13.32
2022-10-18T22:44:50.079Z,12.43
2022-10-18T22:47:16.722Z,11.23
2022-10-18T22:49:43.521Z,12.95
2022-10-18T22:52:10.168Z,12.20
2022-10-18T22:54:36.895Z,12.88
2022-10-18T22:57:04.716Z,13.27
2022-10-18T22:59:31.431Z,13.15
2022-10-18T23:01:58.069Z,12.52
2022-10-18T23:04:24.736Z,11.43
2022-10-18T23:06:51.526Z,11.60
2022-10-18T23:09:18.192Z,10.30
2022-10-18T23:11:44.900Z,9.38
2022-10-18T23:14:11.662Z,10.48
2022-10-18T23:16:38.309Z,10.10
2022-10-18T23:19:05.134Z,8.98
2022-10-18T23:21:33.428Z,9.75
2022-10-18T23:24:00.177Z,11.40
2022-10-18T23:26:27.719Z,14.82
2022-10-18T23:28:55.024Z,11.50
2022-10-18T23:31:24.910Z,13.15
2022-10-18T23:33:53.938Z,10.45
2022-10-18T23:36:21.851Z,11.13
2022-10-18T23:38:48.654Z,11.02
2022-10-18T23:41:15.984Z,10.10
2022-10-18T23:43:43.313Z,10.27
2022-10-18T23:46:10.637Z,12.00
2022-10-18T23:48:37.347Z,10.38
2022-10-18T23:51:04.386Z,11.13
2022-10-18T23:53:31.619Z,8.60
2022-10-18T23:56:00.672Z,10.75
2022-10-18T23:58:28.598Z,9.95
